sensor_id;sensor_type;location;lat;lon;timestamp;P1;durP1;ratioP1;P2;durP2;ratioP2
39918;SDS011;25589;51.552;13.424;2023-04-25T00:00:25;6.10;;;4.20;;
39918;SDS011;25589;51.552;13.424;2023-04-25T00:02:51;8.35;;;4.68;;
39918;SDS011;25589;51.552;13.424;2023-04-25T00:05:16;5.90;;;4.30;;
39918;SDS011;25589;51.552;13.424;2023-04-25T00:07:42;7.38;;;4.53;;
39918;SDS011;25589;51.552;13.424;2023-04-25T00:10:08;4.97;;;3.72;;
39918;SDS011;25589;51.552;13.424;2023-04-25T00:12:36;6.10;;;4.18;;
39918;SDS011;25589;51.552;13.424;2023-04-25T00:15:01;5.93;;;4.43;;
39918;SDS011;25589;51.552;13.424;2023-04-25T00:17:28;5.38;;;4.40;;
39918;SDS011;25589;51.552;13.424;2023-04-25T00:19:53;5.10;;;4.20;;
39918;SDS011;25589;51.552;13.424;2023-04-25T00:22:19;5.45;;;3.95;;
39918;SDS011;25589;51.552;13.424;2023-04-25T00:24:45;7.38;;;4.50;;
39918;SDS011;25589;51.552;13.424;2023-04-25T00:27:11;6.18;;;4.30;;
39918;SDS011;25589;51.552;13.424;2023-04-25T00:29:36;6.90;;;4.20;;
39918;SDS011;25589;51.552;13.424;2023-04-25T00:32:02;5.63;;;4.03;;
39918;SDS011;25589;51.552;13.424;2023-04-25T00:34:27;4.80;;;3.92;;
39918;SDS011;25589;51.552;13.424;2023-04-25T00:36:53;5.43;;;4.38;;
39918;SDS011;25589;51.552;13.424;2023-04-25T00:39:19;7.05;;;3.97;;
39918;SDS011;25589;51.552;13.424;2023-04-25T00:41:44;5.03;;;4.22;;
39918;SDS011;25589;51.552;13.424;2023-04-25T00:44:10;9.35;;;4.45;;
39918;SDS011;25589;51.552;13.424;2023-04-25T00:46:38;7.00;;;4.32;;
39918;SDS011;25589;51.552;13.424;2023-04-25T00:49:04;5.20;;;3.75;;
39918;SDS011;25589;51.552;13.424;2023-04-25T00:51:30;5.22;;;4.00;;
39918;SDS011;25589;51.552;13.424;2023-04-25T00:53:57;6.25;;;4.00;;
39918;SDS011;25589;51.552;13.424;2023-04-25T00:56:23;6.22;;;4.30;;
39918;SDS011;25589;51.552;13.424;2023-04-25T00:58:49;7.68;;;4.22;;
39918;SDS011;25589;51.552;13.424;2023-04-25T01:01:16;5.05;;;4.00;;
39918;SDS011;25589;51.552;13.424;2023-04-25T01:03:42;5.80;;;4.10;;
39918;SDS011;25589;51.552;13.424;2023-04-25T01:06:10;4.72;;;4.05;;
39918;SDS011;25589;51.552;13.424;2023-04-25T01:08:37;5.38;;;4.07;;
39918;SDS011;25589;51.552;13.424;2023-04-25T01:11:04;5.22;;;4.00;;
39918;SDS011;25589;51.552;13.424;2023-04-25T01:13:30;7.07;;;4.25;;
39918;SDS011;25589;51.552;13.424;2023-04-25T01:15:57;6.88;;;4.30;;
39918;SDS011;25589;51.552;13.424;2023-04-25T01:18:23;6.00;;;4.32;;
39918;SDS011;25589;51.552;13.424;2023-04-25T01:20:50;8.30;;;4.15;;
39918;SDS011;25589;51.552;13.424;2023-04-25T01:23:19;6.28;;;4.25;;
39918;SDS011;25589;51.552;13.424;2023-04-25T01:25:45;8.38;;;4.60;;
39918;SDS011;25589;51.552;13.424;2023-04-25T01:28:12;6.43;;;4.63;;
39918;SDS011;25589;51.552;13.424;2023-04-25T01:30:38;9.32;;;4.78;;
39918;SDS011;25589;51.552;13.424;2023-04-25T01:33:05;6.00;;;4.63;;
39918;SDS011;25589;51.552;13.424;2023-04-25T01:35:33;4.90;;;4.35;;
39918;SDS011;25589;51.552;13.424;2023-04-25T01:37:59;6.18;;;4.63;;
39918;SDS011;25589;51.552;13.424;2023-04-25T01:40:25;5.88;;;4.40;;
39918;SDS011;25589;51.552;13.424;2023-04-25T01:42:52;5.47;;;4.28;;
39918;SDS011;25589;51.552;13.424;2023-04-25T01:45:18;7.68;;;4.53;;
39918;SDS011;25589;51.552;13.424;2023-04-25T01:47:45;7.22;;;4.65;;
39918;SDS011;25589;51.552;13.424;2023-04-25T01:50:14;8.93;;;5.20;;
39918;SDS011;25589;51.552;13.424;2023-04-25T01:52:42;5.13;;;4.40;;
39918;SDS011;25589;51.552;13.424;2023-04-25T01:55:08;6.25;;;5.28;;
39918;SDS011;25589;51.552;13.424;2023-04-25T01:57:39;6.88;;;4.90;;
39918;SDS011;25589;51.552;13.424;2023-04-25T02:00:05;5.95;;;4.50;;
39918;SDS011;25589;51.552;13.424;2023-04-25T02:02:37;7.95;;;4.40;;
39918;SDS011;25589;51.552;13.424;2023-04-25T02:05:06;5.95;;;4.80;;
39918;SDS011;25589;51.552;13.424;2023-04-25T02:07:35;6.57;;;4.43;;
39918;SDS011;25589;51.552;13.424;2023-04-25T02:10:00;7.05;;;4.68;;
39918;SDS011;25589;51.552;13.424;2023-04-25T02:12:30;6.10;;;4.55;;
39918;SDS011;25589;51.552;13.424;2023-04-25T02:15:09;5.90;;;4.65;;
39918;SDS011;25589;51.552;13.424;2023-04-25T02:17:41;7.68;;;5.18;;
39918;SDS011;25589;51.552;13.424;2023-04-25T02:20:07;8.15;;;4.60;;
39918;SDS011;25589;51.552;13.424;2023-04-25T02:22:33;6.82;;;4.32;;
39918;SDS011;25589;51.552;13.424;2023-04-25T02:25:00;7.40;;;4.50;;
39918;SDS011;25589;51.552;13.424;2023-04-25T02:27:26;9.73;;;4.15;;
39918;SDS011;25589;51.552;13.424;2023-04-25T02:29:51;6.47;;;3.95;;
39918;SDS011;25589;51.552;13.424;2023-04-25T02:32:17;6.07;;;4.50;;
39918;SDS011;25589;51.552;13.424;2023-04-25T02:34:42;6.30;;;4.35;;
39918;SDS011;25589;51.552;13.424;2023-04-25T02:37:08;7.35;;;4.50;;
39918;SDS011;25589;51.552;13.424;2023-04-25T02:39:33;6.88;;;5.15;;
39918;SDS011;25589;51.552;13.424;2023-04-25T02:41:59;6.68;;;4.88;;
39918;SDS011;25589;51.552;13.424;2023-04-25T02:44:28;6.40;;;4.47;;
39918;SDS011;25589;51.552;13.424;2023-04-25T02:46:54;8.13;;;5.53;;
39918;SDS011;25589;51.552;13.424;2023-04-25T02:49:22;7.88;;;5.05;;
39918;SDS011;25589;51.552;13.424;2023-04-25T02:51:48;8.27;;;4.80;;
39918;SDS011;25589;51.552;13.424;2023-04-25T02:54:13;6.95;;;4.55;;
39918;SDS011;25589;51.552;13.424;2023-04-25T02:56:42;9.65;;;4.50;;
39918;SDS011;25589;51.552;13.424;2023-04-25T02:59:13;6.43;;;4.13;;
39918;SDS011;25589;51.552;13.424;2023-04-25T03:01:39;6.03;;;4.40;;
39918;SDS011;25589;51.552;13.424;2023-04-25T03:04:04;8.05;;;4.78;;
39918;SDS011;25589;51.552;13.424;2023-04-25T03:06:30;7.50;;;4.60;;
39918;SDS011;25589;51.552;13.424;2023-04-25T03:08:56;6.50;;;4.68;;
39918;SDS011;25589;51.552;13.424;2023-04-25T03:11:23;7.07;;;4.78;;
39918;SDS011;25589;51.552;13.424;2023-04-25T03:13:49;7.38;;;4.57;;
39918;SDS011;25589;51.552;13.424;2023-04-25T03:16:15;7.15;;;4.75;;
39918;SDS011;25589;51.552;13.424;2023-04-25T03:18:41;7.05;;;5.05;;
39918;SDS011;25589;51.552;13.424;2023-04-25T03:21:06;8.02;;;4.88;;
39918;SDS011;25589;51.552;13.424;2023-04-25T03:23:32;8.25;;;5.05;;
39918;SDS011;25589;51.552;13.424;2023-04-25T03:25:58;6.00;;;4.53;;
39918;SDS011;25589;51.552;13.424;2023-04-25T03:28:24;9.10;;;5.13;;
39918;SDS011;25589;51.552;13.424;2023-04-25T03:30:50;6.00;;;4.55;;
39918;SDS011;25589;51.552;13.424;2023-04-25T03:33:16;5.80;;;4.70;;
39918;SDS011;25589;51.552;13.424;2023-04-25T03:35:41;5.85;;;4.47;;
39918;SDS011;25589;51.552;13.424;2023-04-25T03:38:07;7.95;;;4.80;;
39918;SDS011;25589;51.552;13.424;2023-04-25T03:40:38;10.50;;;5.20;;
39918;SDS011;25589;51.552;13.424;2023-04-25T03:43:17;10.15;;;5.18;;
39918;SDS011;25589;51.552;13.424;2023-04-25T03:45:49;6.10;;;4.70;;
39918;SDS011;25589;51.552;13.424;2023-04-25T03:48:19;6.97;;;5.32;;
39918;SDS011;25589;51.552;13.424;2023-04-25T03:50:47;7.65;;;5.10;;
39918;SDS011;25589;51.552;13.424;2023-04-25T03:53:13;8.55;;;5.13;;
39918;SDS011;25589;51.552;13.424;2023-04-25T03:55:58;11.13;;;5.65;;
39918;SDS011;25589;51.552;13.424;2023-04-25T03:58:24;7.68;;;4.93;;
39918;SDS011;25589;51.552;13.424;2023-04-25T04:00:49;5.55;;;4.43;;
39918;SDS011;25589;51.552;13.424;2023-04-25T04:03:15;8.73;;;5.40;;
39918;SDS011;25589;51.552;13.424;2023-04-25T04:05:41;6.10;;;4.75;;
39918;SDS011;25589;51.552;13.424;2023-04-25T04:08:06;9.55;;;4.57;;
39918;SDS011;25589;51.552;13.424;2023-04-25T04:10:32;8.15;;;5.47;;
39918;SDS011;25589;51.552;13.424;2023-04-25T04:12:58;7.57;;;5.13;;
39918;SDS011;25589;51.552;13.424;2023-04-25T04:15:24;9.00;;;5.40;;
39918;SDS011;25589;51.552;13.424;2023-04-25T04:17:49;7.43;;;4.85;;
39918;SDS011;25589;51.552;13.424;2023-04-25T04:20:17;8.27;;;5.07;;
39918;SDS011;25589;51.552;13.424;2023-04-25T04:22:43;7.55;;;4.93;;
39918;SDS011;25589;51.552;13.424;2023-04-25T04:25:11;8.65;;;5.25;;
39918;SDS011;25589;51.552;13.424;2023-04-25T04:28:02;9.13;;;5.13;;
39918;SDS011;25589;51.552;13.424;2023-04-25T04:30:37;8.30;;;4.88;;
39918;SDS011;25589;51.552;13.424;2023-04-25T04:33:06;8.50;;;5.07;;
39918;SDS011;25589;51.552;13.424;2023-04-25T04:35:33;6.22;;;4.60;;
39918;SDS011;25589;51.552;13.424;2023-04-25T04:37:59;6.65;;;4.75;;
39918;SDS011;25589;51.552;13.424;2023-04-25T04:40:28;9.55;;;5.28;;
39918;SDS011;25589;51.552;13.424;2023-04-25T04:43:05;8.90;;;4.85;;
39918;SDS011;25589;51.552;13.424;2023-04-25T04:45:56;7.40;;;4.80;;
39918;SDS011;25589;51.552;13.424;2023-04-25T04:48:40;8.25;;;4.30;;
39918;SDS011;25589;51.552;13.424;2023-04-25T04:51:18;7.28;;;4.53;;
39918;SDS011;25589;51.552;13.424;2023-04-25T04:54:04;7.07;;;4.47;;
39918;SDS011;25589;51.552;13.424;2023-04-25T04:56:51;5.68;;;4.45;;
39918;SDS011;25589;51.552;13.424;2023-04-25T04:59:27;7.63;;;4.15;;
39918;SDS011;25589;51.552;13.424;2023-04-25T05:02:04;9.48;;;4.68;;
39918;SDS011;25589;51.552;13.424;2023-04-25T05:04:55;15.25;;;4.32;;
39918;SDS011;25589;51.552;13.424;2023-04-25T05:07:56;9.60;;;4.30;;
39918;SDS011;25589;51.552;13.424;2023-04-25T05:13:17;9.73;;;4.97;;
39918;SDS011;25589;51.552;13.424;2023-04-25T05:15:56;8.68;;;4.47;;
39918;SDS011;25589;51.552;13.424;2023-04-25T05:18:42;6.57;;;4.70;;
39918;SDS011;25589;51.552;13.424;2023-04-25T05:21:27;7.35;;;4.50;;
39918;SDS011;25589;51.552;13.424;2023-04-25T05:24:08;9.50;;;4.60;;
39918;SDS011;25589;51.552;13.424;2023-04-25T05:26:54;9.95;;;4.70;;
39918;SDS011;25589;51.552;13.424;2023-04-25T05:29:38;9.68;;;4.13;;
39918;SDS011;25589;51.552;13.424;2023-04-25T05:32:36;8.75;;;4.57;;
39918;SDS011;25589;51.552;13.424;2023-04-25T05:35:03;10.55;;;5.45;;
39918;SDS011;25589;51.552;13.424;2023-04-25T05:37:38;7.97;;;5.43;;
39918;SDS011;25589;51.552;13.424;2023-04-25T05:40:09;9.45;;;5.10;;
39918;SDS011;25589;51.552;13.424;2023-04-25T05:42:59;10.35;;;4.97;;
39918;SDS011;25589;51.552;13.424;2023-04-25T05:45:41;14.85;;;5.82;;
39918;SDS011;25589;51.552;13.424;2023-04-25T05:48:24;14.20;;;5.88;;
39918;SDS011;25589;51.552;13.424;2023-04-25T05:53:56;11.20;;;5.38;;
39918;SDS011;25589;51.552;13.424;2023-04-25T05:56:22;9.77;;;4.93;;
39918;SDS011;25589;51.552;13.424;2023-04-25T05:58:50;10.02;;;4.85;;
39918;SDS011;25589;51.552;13.424;2023-04-25T06:01:16;8.45;;;4.55;;
39918;SDS011;25589;51.552;13.424;2023-04-25T06:03:43;8.93;;;4.45;;
39918;SDS011;25589;51.552;13.424;2023-04-25T06:06:09;7.95;;;4.45;;
39918;SDS011;25589;51.552;13.424;2023-04-25T06:08:34;9.80;;;4.50;;
39918;SDS011;25589;51.552;13.424;2023-04-25T06:11:00;11.70;;;4.75;;
39918;SDS011;25589;51.552;13.424;2023-04-25T06:13:26;10.68;;;5.28;;
39918;SDS011;25589;51.552;13.424;2023-04-25T06:15:51;11.60;;;4.50;;
39918;SDS011;25589;51.552;13.424;2023-04-25T06:18:17;6.35;;;4.00;;
39918;SDS011;25589;51.552;13.424;2023-04-25T06:20:43;9.38;;;4.60;;
39918;SDS011;25589;51.552;13.424;2023-04-25T06:23:09;12.07;;;4.30;;
39918;SDS011;25589;51.552;13.424;2023-04-25T06:25:45;9.20;;;4.82;;
39918;SDS011;25589;51.552;13.424;2023-04-25T06:28:11;9.95;;;4.63;;
39918;SDS011;25589;51.552;13.424;2023-04-25T06:30:37;9.45;;;5.00;;
39918;SDS011;25589;51.552;13.424;2023-04-25T06:33:07;10.10;;;4.72;;
39918;SDS011;25589;51.552;13.424;2023-04-25T06:35:35;9.95;;;4.95;;
39918;SDS011;25589;51.552;13.424;2023-04-25T06:38:02;8.05;;;4.78;;
39918;SDS011;25589;51.552;13.424;2023-04-25T06:40:29;9.98;;;4.75;;
39918;SDS011;25589;51.552;13.424;2023-04-25T06:42:55;8.85;;;4.63;;
39918;SDS011;25589;51.552;13.424;2023-04-25T06:45:41;8.70;;;4.45;;
39918;SDS011;25589;51.552;13.424;2023-04-25T06:48:08;10.75;;;4.82;;
39918;SDS011;25589;51.552;13.424;2023-04-25T06:50:33;6.68;;;3.92;;
39918;SDS011;25589;51.552;13.424;2023-04-25T06:52:59;11.23;;;4.63;;
39918;SDS011;25589;51.552;13.424;2023-04-25T06:55:27;8.85;;;4.00;;
39918;SDS011;25589;51.552;13.424;2023-04-25T06:58:04;8.45;;;4.38;;
39918;SDS011;25589;51.552;13.424;2023-04-25T07:00:48;9.15;;;4.43;;
39918;SDS011;25589;51.552;13.424;2023-04-25T07:03:14;9.07;;;4.22;;
39918;SDS011;25589;51.552;13.424;2023-04-25T07:05:41;10.80;;;4.75;;
39918;SDS011;25589;51.552;13.424;2023-04-25T07:08:07;13.27;;;4.70;;
39918;SDS011;25589;51.552;13.424;2023-04-25T07:10:33;9.38;;;4.80;;
39918;SDS011;25589;51.552;13.424;2023-04-25T07:12:58;6.50;;;3.80;;
39918;SDS011;25589;51.552;13.424;2023-04-25T07:15:24;8.90;;;4.05;;
39918;SDS011;25589;51.552;13.424;2023-04-25T07:17:50;7.78;;;3.70;;
39918;SDS011;25589;51.552;13.424;2023-04-25T07:20:16;5.03;;;3.28;;
39918;SDS011;25589;51.552;13.424;2023-04-25T07:22:42;10.52;;;3.83;;
39918;SDS011;25589;51.552;13.424;2023-04-25T07:25:08;8.68;;;3.63;;
39918;SDS011;25589;51.552;13.424;2023-04-25T07:27:34;11.85;;;3.83;;
39918;SDS011;25589;51.552;13.424;2023-04-25T07:30:10;7.38;;;3.72;;
39918;SDS011;25589;51.552;13.424;2023-04-25T07:32:38;6.20;;;3.38;;
39918;SDS011;25589;51.552;13.424;2023-04-25T07:35:04;7.43;;;3.20;;
39918;SDS011;25589;51.552;13.424;2023-04-25T07:37:32;8.07;;;3.53;;
39918;SDS011;25589;51.552;13.424;2023-04-25T07:40:18;8.68;;;3.83;;
39918;SDS011;25589;51.552;13.424;2023-04-25T07:42:50;7.60;;;3.92;;
39918;SDS011;25589;51.552;13.424;2023-04-25T07:45:22;7.45;;;4.13;;
39918;SDS011;25589;51.552;13.424;2023-04-25T07:47:48;6.18;;;3.88;;
39918;SDS011;25589;51.552;13.424;2023-04-25T07:50:15;6.18;;;3.45;;
39918;SDS011;25589;51.552;13.424;2023-04-25T07:52:40;8.75;;;3.53;;
39918;SDS011;25589;51.552;13.424;2023-04-25T07:55:15;9.18;;;4.10;;
39918;SDS011;25589;51.552;13.424;2023-04-25T07:57:53;6.20;;;3.67;;
39918;SDS011;25589;51.552;13.424;2023-04-25T08:00:19;7.68;;;3.53;;
39918;SDS011;25589;51.552;13.424;2023-04-25T08:02:51;7.25;;;3.70;;
39918;SDS011;25589;51.552;13.424;2023-04-25T08:05:17;6.10;;;3.92;;
39918;SDS011;25589;51.552;13.424;2023-04-25T08:07:47;8.13;;;3.83;;
39918;SDS011;25589;51.552;13.424;2023-04-25T08:10:13;8.23;;;4.05;;
39918;SDS011;25589;51.552;13.424;2023-04-25T08:12:38;5.40;;;3.22;;
39918;SDS011;25589;51.552;13.424;2023-04-25T08:15:07;7.97;;;4.40;;
39918;SDS011;25589;51.552;13.424;2023-04-25T08:17:36;5.93;;;3.95;;
39918;SDS011;25589;51.552;13.424;2023-04-25T08:20:01;5.53;;;3.50;;
39918;SDS011;25589;51.552;13.424;2023-04-25T08:22:31;5.75;;;4.10;;
39918;SDS011;25589;51.552;13.424;2023-04-25T08:25:12;9.82;;;3.78;;
39918;SDS011;25589;51.552;13.424;2023-04-25T08:27:39;7.82;;;4.13;;
39918;SDS011;25589;51.552;13.424;2023-04-25T08:30:05;5.85;;;3.85;;
39918;SDS011;25589;51.552;13.424;2023-04-25T08:32:33;5.53;;;4.65;;
39918;SDS011;25589;51.552;13.424;2023-04-25T08:35:13;10.52;;;4.72;;
39918;SDS011;25589;51.552;13.424;2023-04-25T08:37:39;7.85;;;4.65;;
39918;SDS011;25589;51.552;13.424;2023-04-25T08:40:13;7.55;;;4.75;;
39918;SDS011;25589;51.552;13.424;2023-04-25T08:42:48;9.27;;;4.57;;
39918;SDS011;25589;51.552;13.424;2023-04-25T08:45:15;9.60;;;3.88;;
39918;SDS011;25589;51.552;13.424;2023-04-25T08:47:41;6.35;;;3.80;;
39918;SDS011;25589;51.552;13.424;2023-04-25T08:50:08;5.38;;;3.85;;
39918;SDS011;25589;51.552;13.424;2023-04-25T08:52:37;6.95;;;4.22;;
39918;SDS011;25589;51.552;13.424;2023-04-25T08:55:07;8.45;;;4.13;;
39918;SDS011;25589;51.552;13.424;2023-04-25T08:57:37;9.00;;;4.43;;
39918;SDS011;25589;51.552;13.424;2023-04-25T09:00:04;6.88;;;4.22;;
39918;SDS011;25589;51.552;13.424;2023-04-25T09:02:33;5.65;;;4.15;;
39918;SDS011;25589;51.552;13.424;2023-04-25T09:05:01;7.93;;;4.18;;
39918;SDS011;25589;51.552;13.424;2023-04-25T09:07:29;8.00;;;4.13;;
39918;SDS011;25589;51.552;13.424;2023-04-25T09:09:55;5.57;;;3.95;;
39918;SDS011;25589;51.552;13.424;2023-04-25T09:12:21;7.80;;;3.80;;
39918;SDS011;25589;51.552;13.424;2023-04-25T09:15:02;9.75;;;3.90;;
39918;SDS011;25589;51.552;13.424;2023-04-25T09:17:56;5.80;;;4.00;;
39918;SDS011;25589;51.552;13.424;2023-04-25T09:20:25;6.00;;;4.30;;
39918;SDS011;25589;51.552;13.424;2023-04-25T09:23:04;4.82;;;3.33;;
39918;SDS011;25589;51.552;13.424;2023-04-25T09:25:36;5.75;;;3.88;;
39918;SDS011;25589;51.552;13.424;2023-04-25T09:28:05;7.43;;;4.20;;
39918;SDS011;25589;51.552;13.424;2023-04-25T09:30:32;7.32;;;4.20;;
39918;SDS011;25589;51.552;13.424;2023-04-25T09:33:11;6.95;;;5.00;;
39918;SDS011;25589;51.552;13.424;2023-04-25T09:35:41;9.45;;;4.88;;
39918;SDS011;25589;51.552;13.424;2023-04-25T09:38:14;8.38;;;4.97;;
39918;SDS011;25589;51.552;13.424;2023-04-25T09:41:06;9.57;;;5.82;;
39918;SDS011;25589;51.552;13.424;2023-04-25T09:43:42;7.22;;;5.50;;
39918;SDS011;25589;51.552;13.424;2023-04-25T09:46:11;8.93;;;5.38;;
39918;SDS011;25589;51.552;13.424;2023-04-25T09:48:41;9.40;;;5.75;;
39918;SDS011;25589;51.552;13.424;2023-04-25T09:51:14;10.40;;;5.38;;
39918;SDS011;25589;51.552;13.424;2023-04-25T09:53:45;8.35;;;5.15;;
39918;SDS011;25589;51.552;13.424;2023-04-25T09:56:34;6.55;;;4.78;;
39918;SDS011;25589;51.552;13.424;2023-04-25T09:59:03;4.68;;;3.60;;
39918;SDS011;25589;51.552;13.424;2023-04-25T10:01:32;8.32;;;3.95;;
39918;SDS011;25589;51.552;13.424;2023-04-25T10:04:07;5.63;;;3.42;;
39918;SDS011;25589;51.552;13.424;2023-04-25T10:06:45;6.93;;;3.63;;
39918;SDS011;25589;51.552;13.424;2023-04-25T10:09:14;7.60;;;3.17;;
39918;SDS011;25589;51.552;13.424;2023-04-25T10:11:42;6.82;;;3.20;;
39918;SDS011;25589;51.552;13.424;2023-04-25T10:14:10;7.45;;;3.15;;
39918;SDS011;25589;51.552;13.424;2023-04-25T10:16:37;4.57;;;3.25;;
39918;SDS011;25589;51.552;13.424;2023-04-25T10:19:04;7.82;;;3.60;;
39918;SDS011;25589;51.552;13.424;2023-04-25T10:21:30;8.10;;;3.40;;
39918;SDS011;25589;51.552;13.424;2023-04-25T10:23:57;5.70;;;3.60;;
39918;SDS011;25589;51.552;13.424;2023-04-25T10:26:23;5.22;;;3.15;;
39918;SDS011;25589;51.552;13.424;2023-04-25T10:28:56;5.45;;;3.13;;
39918;SDS011;25589;51.552;13.424;2023-04-25T10:31:23;7.00;;;3.13;;
39918;SDS011;25589;51.552;13.424;2023-04-25T10:33:49;9.95;;;3.30;;
39918;SDS011;25589;51.552;13.424;2023-04-25T10:36:18;15.32;;;3.47;;
39918;SDS011;25589;51.552;13.424;2023-04-25T10:38:47;5.45;;;3.78;;
39918;SDS011;25589;51.552;13.424;2023-04-25T10:41:13;12.18;;;3.83;;
39918;SDS011;25589;51.552;13.424;2023-04-25T10:43:43;9.30;;;3.20;;
39918;SDS011;25589;51.552;13.424;2023-04-25T10:46:12;6.05;;;2.83;;
39918;SDS011;25589;51.552;13.424;2023-04-25T10:48:52;11.70;;;3.30;;
39918;SDS011;25589;51.552;13.424;2023-04-25T10:54:00;10.27;;;2.88;;
39918;SDS011;25589;51.552;13.424;2023-04-25T11:01:37;15.30;;;3.33;;
39918;SDS011;25589;51.552;13.424;2023-04-25T11:04:23;10.07;;;3.20;;
39918;SDS011;25589;51.552;13.424;2023-04-25T11:09:32;9.55;;;2.58;;
39918;SDS011;25589;51.552;13.424;2023-04-25T11:11:59;11.02;;;3.00;;
39918;SDS011;25589;51.552;13.424;2023-04-25T11:14:25;16.60;;;3.40;;
39918;SDS011;25589;51.552;13.424;2023-04-25T11:16:55;10.30;;;3.42;;
39918;SDS011;25589;51.552;13.424;2023-04-25T11:19:22;9.15;;;3.45;;
39918;SDS011;25589;51.552;13.424;2023-04-25T11:21:48;7.80;;;2.53;;
39918;SDS011;25589;51.552;13.424;2023-04-25T11:24:15;6.57;;;2.55;;
39918;SDS011;25589;51.552;13.424;2023-04-25T11:26:41;9.40;;;2.92;;
39918;SDS011;25589;51.552;13.424;2023-04-25T11:29:08;11.73;;;3.15;;
39918;SDS011;25589;51.552;13.424;2023-04-25T11:31:33;8.57;;;2.97;;
39918;SDS011;25589;51.552;13.424;2023-04-25T11:33:59;7.97;;;2.97;;
39918;SDS011;25589;51.552;13.424;2023-04-25T11:36:25;15.18;;;4.05;;
39918;SDS011;25589;51.552;13.424;2023-04-25T11:38:52;6.60;;;2.60;;
39918;SDS011;25589;51.552;13.424;2023-04-25T11:41:19;8.32;;;3.25;;
39918;SDS011;25589;51.552;13.424;2023-04-25T11:43:45;11.00;;;2.90;;
39918;SDS011;25589;51.552;13.424;2023-04-25T11:46:11;10.55;;;2.78;;
39918;SDS011;25589;51.552;13.424;2023-04-25T11:48:45;10.15;;;2.92;;
39918;SDS011;25589;51.552;13.424;2023-04-25T11:51:11;10.45;;;3.30;;
39918;SDS011;25589;51.552;13.424;2023-04-25T11:53:38;8.55;;;3.03;;
39918;SDS011;25589;51.552;13.424;2023-04-25T11:56:09;12.00;;;3.17;;
39918;SDS011;25589;51.552;13.424;2023-04-25T11:58:58;9.80;;;3.38;;
39918;SDS011;25589;51.552;13.424;2023-04-25T12:01:36;9.90;;;2.58;;
39918;SDS011;25589;51.552;13.424;2023-04-25T12:04:16;11.60;;;3.30;;
39918;SDS011;25589;51.552;13.424;2023-04-25T12:06:43;12.38;;;3.00;;
39918;SDS011;25589;51.552;13.424;2023-04-25T12:09:14;12.68;;;3.53;;
39918;SDS011;25589;51.552;13.424;2023-04-25T12:11:52;9.70;;;3.35;;
39918;SDS011;25589;51.552;13.424;2023-04-25T12:14:22;11.40;;;3.17;;
39918;SDS011;25589;51.552;13.424;2023-04-25T12:19:21;12.52;;;3.17;;
39918;SDS011;25589;51.552;13.424;2023-04-25T12:21:47;15.40;;;3.20;;
39918;SDS011;25589;51.552;13.424;2023-04-25T12:24:14;12.05;;;2.92;;
39918;SDS011;25589;51.552;13.424;2023-04-25T12:26:48;8.65;;;3.47;;
39918;SDS011;25589;51.552;13.424;2023-04-25T12:29:21;6.25;;;2.72;;
39918;SDS011;25589;51.552;13.424;2023-04-25T12:31:49;14.40;;;3.25;;
39918;SDS011;25589;51.552;13.424;2023-04-25T12:34:16;9.00;;;3.13;;
39918;SDS011;25589;51.552;13.424;2023-04-25T12:36:43;9.68;;;3.60;;
39918;SDS011;25589;51.552;13.424;2023-04-25T12:39:08;10.15;;;3.58;;
39918;SDS011;25589;51.552;13.424;2023-04-25T12:41:40;8.27;;;2.95;;
39918;SDS011;25589;51.552;13.424;2023-04-25T12:44:06;8.07;;;3.28;;
39918;SDS011;25589;51.552;13.424;2023-04-25T12:46:31;12.30;;;3.42;;
39918;SDS011;25589;51.552;13.424;2023-04-25T12:48:57;10.40;;;3.45;;
39918;SDS011;25589;51.552;13.424;2023-04-25T12:51:22;8.27;;;3.20;;
39918;SDS011;25589;51.552;13.424;2023-04-25T12:53:50;8.50;;;2.80;;
39918;SDS011;25589;51.552;13.424;2023-04-25T12:56:16;7.40;;;2.97;;
39918;SDS011;25589;51.552;13.424;2023-04-25T12:58:41;8.82;;;3.10;;
39918;SDS011;25589;51.552;13.424;2023-04-25T13:01:09;6.10;;;2.83;;
39918;SDS011;25589;51.552;13.424;2023-04-25T13:03:34;12.85;;;3.28;;
39918;SDS011;25589;51.552;13.424;2023-04-25T13:06:00;6.20;;;2.78;;
39918;SDS011;25589;51.552;13.424;2023-04-25T13:08:26;7.93;;;2.97;;
39918;SDS011;25589;51.552;13.424;2023-04-25T13:10:51;14.55;;;3.38;;
39918;SDS011;25589;51.552;13.424;2023-04-25T13:13:17;7.80;;;2.72;;
39918;SDS011;25589;51.552;13.424;2023-04-25T13:15:42;10.20;;;2.95;;
39918;SDS011;25589;51.552;13.424;2023-04-25T13:18:08;14.07;;;2.97;;
39918;SDS011;25589;51.552;13.424;2023-04-25T13:20:34;7.93;;;2.70;;
39918;SDS011;25589;51.552;13.424;2023-04-25T13:22:59;11.43;;;3.20;;
39918;SDS011;25589;51.552;13.424;2023-04-25T13:25:25;11.95;;;3.28;;
39918;SDS011;25589;51.552;13.424;2023-04-25T13:27:51;11.07;;;2.80;;
39918;SDS011;25589;51.552;13.424;2023-04-25T13:30:16;6.22;;;2.78;;
39918;SDS011;25589;51.552;13.424;2023-04-25T13:32:42;5.25;;;2.90;;
39918;SDS011;25589;51.552;13.424;2023-04-25T13:35:09;12.82;;;3.28;;
39918;SDS011;25589;51.552;13.424;2023-04-25T13:37:36;11.38;;;3.05;;
39918;SDS011;25589;51.552;13.424;2023-04-25T13:40:03;10.52;;;3.20;;
39918;SDS011;25589;51.552;13.424;2023-04-25T13:42:31;7.38;;;2.72;;
39918;SDS011;25589;51.552;13.424;2023-04-25T13:44:56;8.57;;;3.20;;
39918;SDS011;25589;51.552;13.424;2023-04-25T13:47:22;10.95;;;3.03;;
39918;SDS011;25589;51.552;13.424;2023-04-25T13:49:48;6.25;;;2.28;;
39918;SDS011;25589;51.552;13.424;2023-04-25T13:52:14;10.20;;;3.15;;
39918;SDS011;25589;51.552;13.424;2023-04-25T13:54:40;9.15;;;3.38;;
39918;SDS011;25589;51.552;13.424;2023-04-25T13:57:06;10.90;;;4.07;;
39918;SDS011;25589;51.552;13.424;2023-04-25T13:59:32;8.68;;;3.25;;
39918;SDS011;25589;51.552;13.424;2023-04-25T14:01:58;5.20;;;3.42;;
39918;SDS011;25589;51.552;13.424;2023-04-25T14:04:23;6.75;;;2.70;;
39918;SDS011;25589;51.552;13.424;2023-04-25T14:06:50;10.13;;;2.88;;
39918;SDS011;25589;51.552;13.424;2023-04-25T14:09:15;9.57;;;2.22;;
39918;SDS011;25589;51.552;13.424;2023-04-25T14:11:41;7.80;;;2.42;;
39918;SDS011;25589;51.552;13.424;2023-04-25T14:14:06;4.32;;;2.00;;
39918;SDS011;25589;51.552;13.424;2023-04-25T14:16:32;9.18;;;2.72;;
39918;SDS011;25589;51.552;13.424;2023-04-25T14:18:59;4.82;;;2.20;;
39918;SDS011;25589;51.552;13.424;2023-04-25T14:21:25;4.53;;;2.72;;
39918;SDS011;25589;51.552;13.424;2023-04-25T14:23:52;5.95;;;2.10;;
39918;SDS011;25589;51.552;13.424;2023-04-25T14:26:17;4.45;;;2.25;;
39918;SDS011;25589;51.552;13.424;2023-04-25T14:28:43;9.07;;;2.72;;
39918;SDS011;25589;51.552;13.424;2023-04-25T14:31:09;7.63;;;2.65;;
39918;SDS011;25589;51.552;13.424;2023-04-25T14:33:34;10.00;;;2.55;;
39918;SDS011;25589;51.552;13.424;2023-04-25T14:36:00;6.15;;;2.47;;
39918;SDS011;25589;51.552;13.424;2023-04-25T14:38:25;5.00;;;2.55;;
39918;SDS011;25589;51.552;13.424;2023-04-25T14:40:51;8.40;;;2.50;;
39918;SDS011;25589;51.552;13.424;2023-04-25T14:43:18;7.20;;;2.10;;
39918;SDS011;25589;51.552;13.424;2023-04-25T14:45:44;5.20;;;2.15;;
39918;SDS011;25589;51.552;13.424;2023-04-25T14:48:10;7.05;;;1.92;;
39918;SDS011;25589;51.552;13.424;2023-04-25T14:50:36;4.88;;;2.08;;
39918;SDS011;25589;51.552;13.424;2023-04-25T14:53:01;6.35;;;2.10;;
39918;SDS011;25589;51.552;13.424;2023-04-25T14:55:27;4.38;;;1.65;;
39918;SDS011;25589;51.552;13.424;2023-04-25T14:57:53;6.25;;;2.22;;
39918;SDS011;25589;51.552;13.424;2023-04-25T15:00:20;6.15;;;2.13;;
39918;SDS011;25589;51.552;13.424;2023-04-25T15:02:47;9.55;;;2.45;;